sensor_id;sensor_type;location;lat;lon;timestamp;P1;durP1;ratioP1;P2;durP2;ratioP2
43837;SDS011;65998;46.256;7.534;2022-12-29T00:00:10;4.80;;;2.78;;
43837;SDS011;65998;46.256;7.534;2022-12-29T00:02:56;5.53;;;3.07;;
43837;SDS011;65998;46.256;7.534;2022-12-29T00:05:23;5.00;;;2.50;;
43837;SDS011;65998;46.256;7.534;2022-12-29T00:07:49;3.80;;;2.03;;
43837;SDS011;65998;46.256;7.534;2022-12-29T00:10:15;4.35;;;2.30;;
43837;SDS011;65998;46.256;7.534;2022-12-29T00:12:41;4.07;;;1.98;;
43837;SDS011;65998;46.256;7.534;2022-12-29T00:15:25;3.15;;;1.80;;
43837;SDS011;65998;46.256;7.534;2022-12-29T00:18:04;4.20;;;1.98;;
43837;SDS011;65998;46.256;7.534;2022-12-29T00:20:33;3.90;;;1.92;;
43837;SDS011;65998;46.256;7.534;2022-12-29T00:23:19;3.22;;;1.70;;
43837;SDS011;65998;46.256;7.534;2022-12-29T00:26:05;3.88;;;1.60;;
43837;SDS011;65998;46.256;7.534;2022-12-29T00:28:56;3.63;;;1.58;;
43837;SDS011;65998;46.256;7.534;2022-12-29T00:31:40;3.33;;;1.40;;
43837;SDS011;65998;46.256;7.534;2022-12-29T00:34:25;3.33;;;1.60;;
43837;SDS011;65998;46.256;7.534;2022-12-29T00:37:09;2.78;;;1.20;;
43837;SDS011;65998;46.256;7.534;2022-12-29T00:39:36;2.92;;;1.35;;
43837;SDS011;65998;46.256;7.534;2022-12-29T00:42:20;2.40;;;1.08;;
43837;SDS011;65998;46.256;7.534;2022-12-29T00:45:04;4.45;;;1.35;;
43837;SDS011;65998;46.256;7.534;2022-12-29T00:47:30;3.03;;;1.20;;
43837;SDS011;65998;46.256;7.534;2022-12-29T00:49:57;3.95;;;1.63;;
43837;SDS011;65998;46.256;7.534;2022-12-29T00:52:22;4.88;;;1.30;;
43837;SDS011;65998;46.256;7.534;2022-12-29T00:54:48;2.70;;;1.15;;
43837;SDS011;65998;46.256;7.534;2022-12-29T00:57:14;2.57;;;0.90;;
43837;SDS011;65998;46.256;7.534;2022-12-29T00:59:41;3.63;;;1.10;;
43837;SDS011;65998;46.256;7.534;2022-12-29T01:02:08;3.22;;;1.10;;
43837;SDS011;65998;46.256;7.534;2022-12-29T01:04:35;3.65;;;1.08;;
43837;SDS011;65998;46.256;7.534;2022-12-29T01:07:01;3.63;;;1.05;;
43837;SDS011;65998;46.256;7.534;2022-12-29T01:09:27;3.07;;;0.90;;
43837;SDS011;65998;46.256;7.534;2022-12-29T01:12:12;2.40;;;0.73;;
43837;SDS011;65998;46.256;7.534;2022-12-29T01:14:38;3.53;;;1.00;;
43837;SDS011;65998;46.256;7.534;2022-12-29T01:17:05;4.38;;;0.85;;
43837;SDS011;65998;46.256;7.534;2022-12-29T01:19:31;2.90;;;1.00;;
43837;SDS011;65998;46.256;7.534;2022-12-29T01:21:57;3.03;;;0.90;;
43837;SDS011;65998;46.256;7.534;2022-12-29T01:24:24;2.72;;;0.80;;
43837;SDS011;65998;46.256;7.534;2022-12-29T01:26:51;2.63;;;0.70;;
43837;SDS011;65998;46.256;7.534;2022-12-29T01:29:18;3.28;;;0.80;;
43837;SDS011;65998;46.256;7.534;2022-12-29T01:31:43;2.67;;;0.60;;
43837;SDS011;65998;46.256;7.534;2022-12-29T01:34:10;3.60;;;0.90;;
43837;SDS011;65998;46.256;7.534;2022-12-29T01:36:36;2.67;;;0.60;;
43837;SDS011;65998;46.256;7.534;2022-12-29T01:39:02;2.17;;;0.70;;
43837;SDS011;65998;46.256;7.534;2022-12-29T01:41:27;2.17;;;0.73;;
43837;SDS011;65998;46.256;7.534;2022-12-29T01:43:55;3.42;;;0.70;;
43837;SDS011;65998;46.256;7.534;2022-12-29T01:49:19;1.83;;;0.50;;
43837;SDS011;65998;46.256;7.534;2022-12-29T01:51:57;2.30;;;0.60;;
43837;SDS011;65998;46.256;7.534;2022-12-29T01:57:12;1.80;;;0.50;;
43837;SDS011;65998;46.256;7.534;2022-12-29T01:59:43;3.85;;;0.55;;
43837;SDS011;65998;46.256;7.534;2022-12-29T02:02:16;2.17;;;0.60;;
43837;SDS011;65998;46.256;7.534;2022-12-29T02:04:42;2.20;;;0.50;;
43837;SDS011;65998;46.256;7.534;2022-12-29T02:07:20;1.90;;;0.50;;
43837;SDS011;65998;46.256;7.534;2022-12-29T02:09:49;2.50;;;0.70;;
43837;SDS011;65998;46.256;7.534;2022-12-29T02:12:17;2.00;;;0.40;;
43837;SDS011;65998;46.256;7.534;2022-12-29T02:14:46;1.90;;;0.50;;
43837;SDS011;65998;46.256;7.534;2022-12-29T02:28:35;2.10;;;0.60;;
43837;SDS011;65998;46.256;7.534;2022-12-29T02:41:58;1.70;;;0.45;;
43837;SDS011;65998;46.256;7.534;2022-12-29T02:44:31;1.75;;;0.50;;
43837;SDS011;65998;46.256;7.534;2022-12-29T02:47:28;1.87;;;0.50;;
43837;SDS011;65998;46.256;7.534;2022-12-29T02:49:59;1.90;;;0.52;;
43837;SDS011;65998;46.256;7.534;2022-12-29T02:52:33;2.53;;;0.50;;
43837;SDS011;65998;46.256;7.534;2022-12-29T02:55:03;1.85;;;0.40;;
43837;SDS011;65998;46.256;7.534;2022-12-29T02:57:34;2.03;;;0.50;;
43837;SDS011;65998;46.256;7.534;2022-12-29T03:00:07;1.37;;;0.30;;
43837;SDS011;65998;46.256;7.534;2022-12-29T03:16:49;1.40;;;0.38;;
43837;SDS011;65998;46.256;7.534;2022-12-29T03:19:31;1.65;;;0.35;;
43837;SDS011;65998;46.256;7.534;2022-12-29T03:22:02;2.03;;;0.40;;
43837;SDS011;65998;46.256;7.534;2022-12-29T03:24:51;1.80;;;0.30;;
43837;SDS011;65998;46.256;7.534;2022-12-29T03:27:22;1.90;;;0.40;;
43837;SDS011;65998;46.256;7.534;2022-12-29T03:30:00;1.80;;;0.40;;
43837;SDS011;65998;46.256;7.534;2022-12-29T03:32:47;1.63;;;0.40;;
43837;SDS011;65998;46.256;7.534;2022-12-29T03:35:21;1.80;;;0.40;;
43837;SDS011;65998;46.256;7.534;2022-12-29T03:37:52;2.10;;;0.50;;
43837;SDS011;65998;46.256;7.534;2022-12-29T03:40:25;1.50;;;0.30;;
43837;SDS011;65998;46.256;7.534;2022-12-29T03:42:53;1.40;;;0.30;;
43837;SDS011;65998;46.256;7.534;2022-12-29T03:45:21;1.95;;;0.30;;
43837;SDS011;65998;46.256;7.534;2022-12-29T03:47:47;1.90;;;0.40;;
43837;SDS011;65998;46.256;7.534;2022-12-29T03:50:13;1.50;;;0.27;;
43837;SDS011;65998;46.256;7.534;2022-12-29T03:52:39;1.60;;;0.40;;
43837;SDS011;65998;46.256;7.534;2022-12-29T03:55:05;1.60;;;0.40;;
43837;SDS011;65998;46.256;7.534;2022-12-29T03:57:31;1.83;;;0.30;;
43837;SDS011;65998;46.256;7.534;2022-12-29T03:59:57;1.57;;;0.30;;
43837;SDS011;65998;46.256;7.534;2022-12-29T04:02:23;1.40;;;0.22;;
43837;SDS011;65998;46.256;7.534;2022-12-29T04:04:49;1.40;;;0.30;;
43837;SDS011;65998;46.256;7.534;2022-12-29T04:07:15;1.50;;;0.30;;
43837;SDS011;65998;46.256;7.534;2022-12-29T04:09:41;1.60;;;0.40;;
43837;SDS011;65998;46.256;7.534;2022-12-29T04:12:07;1.42;;;0.30;;
43837;SDS011;65998;46.256;7.534;2022-12-29T04:14:33;1.60;;;0.30;;
43837;SDS011;65998;46.256;7.534;2022-12-29T04:16:59;1.60;;;0.35;;
43837;SDS011;65998;46.256;7.534;2022-12-29T04:19:25;1.65;;;0.30;;
43837;SDS011;65998;46.256;7.534;2022-12-29T04:21:50;2.17;;;0.50;;
43837;SDS011;65998;46.256;7.534;2022-12-29T04:24:16;1.30;;;0.20;;
43837;SDS011;65998;46.256;7.534;2022-12-29T04:26:42;1.40;;;0.30;;
43837;SDS011;65998;46.256;7.534;2022-12-29T04:29:08;1.50;;;0.30;;
43837;SDS011;65998;46.256;7.534;2022-12-29T04:31:34;1.50;;;0.30;;
43837;SDS011;65998;46.256;7.534;2022-12-29T04:34:01;1.40;;;0.30;;
43837;SDS011;65998;46.256;7.534;2022-12-29T04:36:26;1.90;;;0.47;;
43837;SDS011;65998;46.256;7.534;2022-12-29T04:38:53;1.95;;;0.40;;
43837;SDS011;65998;46.256;7.534;2022-12-29T04:41:18;1.73;;;0.43;;
43837;SDS011;65998;46.256;7.534;2022-12-29T04:43:44;1.27;;;0.20;;
43837;SDS011;65998;46.256;7.534;2022-12-29T04:46:10;1.87;;;0.40;;
43837;SDS011;65998;46.256;7.534;2022-12-29T04:48:36;1.60;;;0.30;;
43837;SDS011;65998;46.256;7.534;2022-12-29T04:51:04;1.60;;;0.35;;
43837;SDS011;65998;46.256;7.534;2022-12-29T04:53:30;1.83;;;0.30;;
43837;SDS011;65998;46.256;7.534;2022-12-29T04:55:56;1.30;;;0.30;;
43837;SDS011;65998;46.256;7.534;2022-12-29T04:58:22;1.58;;;0.30;;
43837;SDS011;65998;46.256;7.534;2022-12-29T05:00:48;1.40;;;0.30;;
43837;SDS011;65998;46.256;7.534;2022-12-29T05:03:14;1.08;;;0.20;;
43837;SDS011;65998;46.256;7.534;2022-12-29T05:05:40;1.10;;;0.20;;
43837;SDS011;65998;46.256;7.534;2022-12-29T05:08:06;1.65;;;0.40;;
43837;SDS011;65998;46.256;7.534;2022-12-29T05:10:32;1.33;;;0.20;;
43837;SDS011;65998;46.256;7.534;2022-12-29T05:12:58;1.52;;;0.30;;
43837;SDS011;65998;46.256;7.534;2022-12-29T05:15:25;0.85;;;0.15;;
43837;SDS011;65998;46.256;7.534;2022-12-29T05:17:51;1.30;;;0.30;;
43837;SDS011;65998;46.256;7.534;2022-12-29T05:20:17;1.33;;;0.30;;
43837;SDS011;65998;46.256;7.534;2022-12-29T05:22:44;1.10;;;0.30;;
43837;SDS011;65998;46.256;7.534;2022-12-29T05:25:10;1.70;;;0.30;;
43837;SDS011;65998;46.256;7.534;2022-12-29T05:27:36;1.40;;;0.30;;
43837;SDS011;65998;46.256;7.534;2022-12-29T05:30:02;0.90;;;0.20;;
43837;SDS011;65998;46.256;7.534;2022-12-29T05:32:29;1.88;;;0.20;;
43837;SDS011;65998;46.256;7.534;2022-12-29T05:34:54;1.45;;;0.30;;
43837;SDS011;65998;46.256;7.534;2022-12-29T05:37:20;1.45;;;0.30;;
43837;SDS011;65998;46.256;7.534;2022-12-29T05:39:46;1.53;;;0.40;;
43837;SDS011;65998;46.256;7.534;2022-12-29T05:42:12;1.33;;;0.30;;
43837;SDS011;65998;46.256;7.534;2022-12-29T05:44:38;2.13;;;0.40;;
43837;SDS011;65998;46.256;7.534;2022-12-29T05:47:04;1.70;;;0.30;;
43837;SDS011;65998;46.256;7.534;2022-12-29T05:49:30;1.40;;;0.20;;
43837;SDS011;65998;46.256;7.534;2022-12-29T05:51:56;1.70;;;0.30;;
43837;SDS011;65998;46.256;7.534;2022-12-29T05:54:22;1.70;;;0.30;;
43837;SDS011;65998;46.256;7.534;2022-12-29T05:56:48;1.80;;;0.40;;
43837;SDS011;65998;46.256;7.534;2022-12-29T05:59:14;1.73;;;0.30;;
43837;SDS011;65998;46.256;7.534;2022-12-29T06:01:40;1.73;;;0.38;;
43837;SDS011;65998;46.256;7.534;2022-12-29T06:04:06;1.57;;;0.30;;
43837;SDS011;65998;46.256;7.534;2022-12-29T06:06:32;1.40;;;0.30;;
43837;SDS011;65998;46.256;7.534;2022-12-29T06:08:58;1.90;;;0.30;;
43837;SDS011;65998;46.256;7.534;2022-12-29T06:11:24;1.75;;;0.40;;
43837;SDS011;65998;46.256;7.534;2022-12-29T06:13:49;1.92;;;0.40;;
43837;SDS011;65998;46.256;7.534;2022-12-29T06:16:16;1.95;;;0.40;;
43837;SDS011;65998;46.256;7.534;2022-12-29T06:18:41;1.70;;;0.40;;
43837;SDS011;65998;46.256;7.534;2022-12-29T06:21:08;2.00;;;0.50;;
43837;SDS011;65998;46.256;7.534;2022-12-29T06:23:33;1.80;;;0.40;;
43837;SDS011;65998;46.256;7.534;2022-12-29T06:26:00;1.67;;;0.47;;
43837;SDS011;65998;46.256;7.534;2022-12-29T06:28:26;1.48;;;0.32;;
43837;SDS011;65998;46.256;7.534;2022-12-29T06:30:52;1.60;;;0.40;;
43837;SDS011;65998;46.256;7.534;2022-12-29T06:33:18;1.70;;;0.40;;
43837;SDS011;65998;46.256;7.534;2022-12-29T06:35:44;1.50;;;0.40;;
43837;SDS011;65998;46.256;7.534;2022-12-29T06:38:11;1.85;;;0.32;;
43837;SDS011;65998;46.256;7.534;2022-12-29T06:40:38;2.15;;;0.50;;
43837;SDS011;65998;46.256;7.534;2022-12-29T06:43:03;2.00;;;0.40;;
43837;SDS011;65998;46.256;7.534;2022-12-29T06:45:29;1.55;;;0.35;;
43837;SDS011;65998;46.256;7.534;2022-12-29T06:47:55;2.13;;;0.50;;
43837;SDS011;65998;46.256;7.534;2022-12-29T06:50:21;2.13;;;0.60;;
43837;SDS011;65998;46.256;7.534;2022-12-29T06:52:47;1.70;;;0.40;;
43837;SDS011;65998;46.256;7.534;2022-12-29T06:55:13;1.70;;;0.50;;
43837;SDS011;65998;46.256;7.534;2022-12-29T06:57:39;2.53;;;0.40;;
43837;SDS011;65998;46.256;7.534;2022-12-29T07:00:06;2.00;;;0.47;;
43837;SDS011;65998;46.256;7.534;2022-12-29T07:02:32;1.87;;;0.30;;
43837;SDS011;65998;46.256;7.534;2022-12-29T07:04:58;1.88;;;0.40;;
43837;SDS011;65998;46.256;7.534;2022-12-29T07:07:24;1.77;;;0.50;;
43837;SDS011;65998;46.256;7.534;2022-12-29T07:09:50;1.85;;;0.50;;
43837;SDS011;65998;46.256;7.534;2022-12-29T07:12:16;2.70;;;0.47;;
43837;SDS011;65998;46.256;7.534;2022-12-29T07:14:42;2.10;;;0.30;;
43837;SDS011;65998;46.256;7.534;2022-12-29T07:17:08;1.55;;;0.40;;
43837;SDS011;65998;46.256;7.534;2022-12-29T07:19:34;3.10;;;0.50;;
43837;SDS011;65998;46.256;7.534;2022-12-29T07:22:00;2.15;;;0.60;;
43837;SDS011;65998;46.256;7.534;2022-12-29T07:24:26;2.47;;;0.68;;
43837;SDS011;65998;46.256;7.534;2022-12-29T07:26:52;1.77;;;0.43;;
43837;SDS011;65998;46.256;7.534;2022-12-29T07:29:18;1.83;;;0.50;;
43837;SDS011;65998;46.256;7.534;2022-12-29T07:31:44;1.85;;;0.50;;
43837;SDS011;65998;46.256;7.534;2022-12-29T07:34:10;2.10;;;0.50;;
43837;SDS011;65998;46.256;7.534;2022-12-29T07:36:36;2.08;;;0.50;;
43837;SDS011;65998;46.256;7.534;2022-12-29T07:39:03;1.77;;;0.50;;
43837;SDS011;65998;46.256;7.534;2022-12-29T07:41:29;1.90;;;0.55;;
43837;SDS011;65998;46.256;7.534;2022-12-29T07:43:55;1.90;;;0.50;;
43837;SDS011;65998;46.256;7.534;2022-12-29T07:46:21;1.60;;;0.50;;
43837;SDS011;65998;46.256;7.534;2022-12-29T07:48:47;1.80;;;0.40;;
43837;SDS011;65998;46.256;7.534;2022-12-29T07:51:13;3.83;;;0.70;;
43837;SDS011;65998;46.256;7.534;2022-12-29T07:53:39;1.90;;;0.52;;
43837;SDS011;65998;46.256;7.534;2022-12-29T07:56:05;2.33;;;0.70;;
43837;SDS011;65998;46.256;7.534;2022-12-29T07:58:31;1.85;;;0.50;;
43837;SDS011;65998;46.256;7.534;2022-12-29T08:00:57;1.57;;;0.40;;
43837;SDS011;65998;46.256;7.534;2022-12-29T08:03:24;1.90;;;0.40;;
43837;SDS011;65998;46.256;7.534;2022-12-29T08:05:51;1.80;;;0.50;;
43837;SDS011;65998;46.256;7.534;2022-12-29T08:08:17;2.38;;;0.40;;
43837;SDS011;65998;46.256;7.534;2022-12-29T08:10:43;1.98;;;0.55;;
43837;SDS011;65998;46.256;7.534;2022-12-29T08:13:09;3.23;;;0.70;;
43837;SDS011;65998;46.256;7.534;2022-12-29T08:15:37;2.10;;;0.80;;
43837;SDS011;65998;46.256;7.534;2022-12-29T08:18:04;3.55;;;0.82;;
43837;SDS011;65998;46.256;7.534;2022-12-29T08:20:30;2.80;;;0.60;;
43837;SDS011;65998;46.256;7.534;2022-12-29T08:22:56;2.47;;;0.70;;
43837;SDS011;65998;46.256;7.534;2022-12-29T08:25:22;4.63;;;1.37;;
43837;SDS011;65998;46.256;7.534;2022-12-29T08:27:48;3.15;;;1.38;;
43837;SDS011;65998;46.256;7.534;2022-12-29T08:30:14;4.03;;;1.83;;
43837;SDS011;65998;46.256;7.534;2022-12-29T08:32:40;3.47;;;1.65;;
43837;SDS011;65998;46.256;7.534;2022-12-29T08:35:07;3.45;;;1.58;;
43837;SDS011;65998;46.256;7.534;2022-12-29T08:37:33;4.00;;;1.55;;
43837;SDS011;65998;46.256;7.534;2022-12-29T08:40:00;3.83;;;1.40;;
43837;SDS011;65998;46.256;7.534;2022-12-29T08:42:29;3.33;;;1.40;;
43837;SDS011;65998;46.256;7.534;2022-12-29T08:44:59;3.35;;;1.25;;
43837;SDS011;65998;46.256;7.534;2022-12-29T08:47:26;2.88;;;1.15;;
43837;SDS011;65998;46.256;7.534;2022-12-29T08:49:52;2.55;;;1.08;;
43837;SDS011;65998;46.256;7.534;2022-12-29T08:52:18;3.10;;;1.38;;
43837;SDS011;65998;46.256;7.534;2022-12-29T08:54:45;2.87;;;1.20;;
43837;SDS011;65998;46.256;7.534;2022-12-29T08:57:11;2.35;;;0.90;;
43837;SDS011;65998;46.256;7.534;2022-12-29T08:59:37;2.22;;;1.00;;
43837;SDS011;65998;46.256;7.534;2022-12-29T09:02:03;2.60;;;1.08;;
43837;SDS011;65998;46.256;7.534;2022-12-29T09:04:29;2.87;;;1.10;;
43837;SDS011;65998;46.256;7.534;2022-12-29T09:06:55;2.85;;;1.00;;
43837;SDS011;65998;46.256;7.534;2022-12-29T09:09:21;2.58;;;1.08;;
43837;SDS011;65998;46.256;7.534;2022-12-29T09:11:47;2.92;;;1.20;;
43837;SDS011;65998;46.256;7.534;2022-12-29T09:14:13;2.80;;;1.10;;
43837;SDS011;65998;46.256;7.534;2022-12-29T09:16:40;3.00;;;1.00;;
43837;SDS011;65998;46.256;7.534;2022-12-29T09:19:24;2.95;;;1.00;;
43837;SDS011;65998;46.256;7.534;2022-12-29T09:21:51;2.17;;;0.80;;
43837;SDS011;65998;46.256;7.534;2022-12-29T09:24:16;2.50;;;0.90;;
43837;SDS011;65998;46.256;7.534;2022-12-29T09:26:43;3.45;;;1.38;;
43837;SDS011;65998;46.256;7.534;2022-12-29T09:29:09;3.47;;;1.00;;
43837;SDS011;65998;46.256;7.534;2022-12-29T09:31:35;3.10;;;1.33;;
43837;SDS011;65998;46.256;7.534;2022-12-29T09:34:01;3.63;;;1.35;;
43837;SDS011;65998;46.256;7.534;2022-12-29T09:36:27;2.50;;;1.00;;
43837;SDS011;65998;46.256;7.534;2022-12-29T09:38:53;3.08;;;1.40;;
43837;SDS011;65998;46.256;7.534;2022-12-29T09:41:22;2.90;;;1.13;;
43837;SDS011;65998;46.256;7.534;2022-12-29T09:44:17;2.90;;;1.33;;
43837;SDS011;65998;46.256;7.534;2022-12-29T09:46:41;3.15;;;1.10;;
43837;SDS011;65998;46.256;7.534;2022-12-29T09:51:40;2.30;;;0.90;;
43837;SDS011;65998;46.256;7.534;2022-12-29T09:54:45;3.10;;;1.27;;
43837;SDS011;65998;46.256;7.534;2022-12-29T09:57:48;3.38;;;1.00;;
43837;SDS011;65998;46.256;7.534;2022-12-29T10:00:01;3.55;;;1.00;;
43837;SDS011;65998;46.256;7.534;2022-12-29T10:02:43;2.97;;;0.95;;
43837;SDS011;65998;46.256;7.534;2022-12-29T10:07:52;2.60;;;1.00;;
43837;SDS011;65998;46.256;7.534;2022-12-29T10:13:13;2.80;;;1.17;;
43837;SDS011;65998;46.256;7.534;2022-12-29T10:23:21;3.30;;;1.10;;
43837;SDS011;65998;46.256;7.534;2022-12-29T10:25:58;3.57;;;1.20;;
43837;SDS011;65998;46.256;7.534;2022-12-29T10:28:48;3.15;;;1.00;;
43837;SDS011;65998;46.256;7.534;2022-12-29T10:31:43;2.38;;;1.00;;
43837;SDS011;65998;46.256;7.534;2022-12-29T10:37:00;3.80;;;1.10;;
43837;SDS011;65998;46.256;7.534;2022-12-29T10:39:59;3.13;;;0.90;;
43837;SDS011;65998;46.256;7.534;2022-12-29T10:45:14;3.28;;;1.10;;
43837;SDS011;65998;46.256;7.534;2022-12-29T10:47:51;3.35;;;1.10;;
43837;SDS011;65998;46.256;7.534;2022-12-29T10:59:10;4.40;;;1.00;;
43837;SDS011;65998;46.256;7.534;2022-12-29T11:04:36;3.40;;;0.90;;
43837;SDS011;65998;46.256;7.534;2022-12-29T11:07:14;6.80;;;1.00;;
43837;SDS011;65998;46.256;7.534;2022-12-29T11:09:46;4.20;;;0.70;;
43837;SDS011;65998;46.256;7.534;2022-12-29T11:12:54;3.75;;;1.10;;
43837;SDS011;65998;46.256;7.534;2022-12-29T11:15:25;5.13;;;0.90;;
43837;SDS011;65998;46.256;7.534;2022-12-29T11:20:59;2.87;;;1.00;;
43837;SDS011;65998;46.256;7.534;2022-12-29T11:23:35;4.22;;;0.80;;
43837;SDS011;65998;46.256;7.534;2022-12-29T11:26:08;3.60;;;1.00;;
43837;SDS011;65998;46.256;7.534;2022-12-29T11:28:46;8.60;;;1.10;;
43837;SDS011;65998;46.256;7.534;2022-12-29T11:40:21;6.45;;;1.20;;
43837;SDS011;65998;46.256;7.534;2022-12-29T11:42:49;6.53;;;1.37;;
43837;SDS011;65998;46.256;7.534;2022-12-29T11:45:18;6.80;;;1.10;;
43837;SDS011;65998;46.256;7.534;2022-12-29T11:47:48;5.32;;;1.88;;
43837;SDS011;65998;46.256;7.534;2022-12-29T11:50:19;6.00;;;2.08;;
43837;SDS011;65998;46.256;7.534;2022-12-29T11:52:48;7.90;;;1.80;;
43837;SDS011;65998;46.256;7.534;2022-12-29T11:55:24;4.32;;;1.50;;
43837;SDS011;65998;46.256;7.534;2022-12-29T11:57:52;5.63;;;1.60;;
43837;SDS011;65998;46.256;7.534;2022-12-29T12:00:21;5.47;;;1.23;;
43837;SDS011;65998;46.256;7.534;2022-12-29T12:05:47;4.05;;;1.00;;
43837;SDS011;65998;46.256;7.534;2022-12-29T12:08:39;5.05;;;1.05;;
43837;SDS011;65998;46.256;7.534;2022-12-29T12:11:16;4.55;;;0.90;;
43837;SDS011;65998;46.256;7.534;2022-12-29T12:16:24;3.38;;;0.90;;
43837;SDS011;65998;46.256;7.534;2022-12-29T12:18:58;7.20;;;1.10;;
43837;SDS011;65998;46.256;7.534;2022-12-29T12:21:40;4.82;;;0.93;;
43837;SDS011;65998;46.256;7.534;2022-12-29T12:24:28;9.55;;;0.85;;
43837;SDS011;65998;46.256;7.534;2022-12-29T12:29:35;5.85;;;1.00;;
43837;SDS011;65998;46.256;7.534;2022-12-29T12:32:09;5.82;;;0.85;;
43837;SDS011;65998;46.256;7.534;2022-12-29T12:34:37;6.38;;;1.00;;
43837;SDS011;65998;46.256;7.534;2022-12-29T12:37:12;3.83;;;0.93;;
43837;SDS011;65998;46.256;7.534;2022-12-29T12:39:45;4.07;;;0.80;;
43837;SDS011;65998;46.256;7.534;2022-12-29T12:42:28;2.70;;;0.80;;
43837;SDS011;65998;46.256;7.534;2022-12-29T12:53:25;3.28;;;0.85;;
43837;SDS011;65998;46.256;7.534;2022-12-29T13:07:15;3.40;;;0.70;;
43837;SDS011;65998;46.256;7.534;2022-12-29T13:21:35;9.65;;;1.30;;
43837;SDS011;65998;46.256;7.534;2022-12-29T13:27:28;3.78;;;1.25;;
43837;SDS011;65998;46.256;7.534;2022-12-29T13:35:16;12.30;;;4.55;;
43837;SDS011;65998;46.256;7.534;2022-12-29T13:38:04;5.90;;;1.90;;
43837;SDS011;65998;46.256;7.534;2022-12-29T13:40:38;13.70;;;2.53;;
43837;SDS011;65998;46.256;7.534;2022-12-29T13:43:09;10.90;;;1.80;;
43837;SDS011;65998;46.256;7.534;2022-12-29T13:45:35;5.55;;;1.40;;
43837;SDS011;65998;46.256;7.534;2022-12-29T13:48:17;8.15;;;1.70;;
43837;SDS011;65998;46.256;7.534;2022-12-29T13:50:51;6.35;;;1.20;;
43837;SDS011;65998;46.256;7.534;2022-12-29T13:56:39;5.40;;;1.10;;
43837;SDS011;65998;46.256;7.534;2022-12-29T18:42:48;5.40;;;1.80;;
43837;SDS011;65998;46.256;7.534;2022-12-29T18:47:44;5.38;;;2.10;;
43837;SDS011;65998;46.256;7.534;2022-12-29T18:50:11;5.20;;;2.50;;
43837;SDS011;65998;46.256;7.534;2022-12-29T18:52:39;7.47;;;3.10;;
43837;SDS011;65998;46.256;7.534;2022-12-29T18:55:26;12.63;;;6.13;;
43837;SDS011;65998;46.256;7.534;2022-12-29T18:57:53;11.10;;;4.88;;
43837;SDS011;65998;46.256;7.534;2022-12-29T19:00:20;10.65;;;3.40;;
43837;SDS011;65998;46.256;7.534;2022-12-29T19:02:49;8.30;;;3.10;;
43837;SDS011;65998;46.256;7.534;2022-12-29T19:07:51;6.57;;;2.73;;
43837;SDS011;65998;46.256;7.534;2022-12-29T19:10:19;9.48;;;2.67;;
43837;SDS011;65998;46.256;7.534;2022-12-29T19:12:47;8.30;;;3.08;;
43837;SDS011;65998;46.256;7.534;2022-12-29T19:15:23;6.43;;;2.92;;
43837;SDS011;65998;46.256;7.534;2022-12-29T19:17:55;5.97;;;2.50;;
43837;SDS011;65998;46.256;7.534;2022-12-29T19:22:56;5.65;;;2.35;;
43837;SDS011;65998;46.256;7.534;2022-12-29T19:25:24;6.65;;;2.75;;
43837;SDS011;65998;46.256;7.534;2022-12-29T19:27:50;9.48;;;2.85;;
43837;SDS011;65998;46.256;7.534;2022-12-29T19:30:18;7.87;;;3.03;;
43837;SDS011;65998;46.256;7.534;2022-12-29T19:32:48;5.05;;;2.42;;
43837;SDS011;65998;46.256;7.534;2022-12-29T19:35:17;5.30;;;2.17;;
43837;SDS011;65998;46.256;7.534;2022-12-29T19:37:49;7.88;;;2.65;;
43837;SDS011;65998;46.256;7.534;2022-12-29T19:40:18;5.53;;;2.50;;
43837;SDS011;65998;46.256;7.534;2022-12-29T19:42:54;6.07;;;2.80;;
43837;SDS011;65998;46.256;7.534;2022-12-29T19:45:40;8.45;;;2.55;;
43837;SDS011;65998;46.256;7.534;2022-12-29T19:48:32;5.88;;;2.90;;
43837;SDS011;65998;46.256;7.534;2022-12-29T19:51:19;11.65;;;2.95;;
43837;SDS011;65998;46.256;7.534;2022-12-29T19:53:48;8.95;;;2.70;;
43837;SDS011;65998;46.256;7.534;2022-12-29T19:56:51;5.77;;;2.70;;
43837;SDS011;65998;46.256;7.534;2022-12-29T19:59:33;9.82;;;2.60;;
43837;SDS011;65998;46.256;7.534;2022-12-29T20:02:28;6.20;;;2.20;;
43837;SDS011;65998;46.256;7.534;2022-12-29T20:05:28;6.97;;;2.40;;
43837;SDS011;65998;46.256;7.534;2022-12-29T20:14:58;5.72;;;1.90;;
43837;SDS011;65998;46.256;7.534;2022-12-29T20:17:31;7.43;;;2.30;;
43837;SDS011;65998;46.256;7.534;2022-12-29T20:20:14;5.60;;;2.10;;
43837;SDS011;65998;46.256;7.534;2022-12-29T20:22:40;8.15;;;2.20;;
43837;SDS011;65998;46.256;7.534;2022-12-29T20:25:06;4.53;;;2.10;;
43837;SDS011;65998;46.256;7.534;2022-12-29T20:27:33;4.47;;;2.08;;
43837;SDS011;65998;46.256;7.534;2022-12-29T20:29:59;5.75;;;2.70;;
43837;SDS011;65998;46.256;7.534;2022-12-29T20:32:26;6.90;;;2.92;;
43837;SDS011;65998;46.256;7.534;2022-12-29T20:34:51;4.30;;;2.08;;
43837;SDS011;65998;46.256;7.534;2022-12-29T20:37:19;5.35;;;2.28;;
43837;SDS011;65998;46.256;7.534;2022-12-29T20:39:47;3.95;;;1.90;;
43837;SDS011;65998;46.256;7.534;2022-12-29T20:42:14;4.75;;;1.90;;
43837;SDS011;65998;46.256;7.534;2022-12-29T20:44:42;9.17;;;2.10;;
43837;SDS011;65998;46.256;7.534;2022-12-29T20:47:09;4.50;;;2.13;;
43837;SDS011;65998;46.256;7.534;2022-12-29T20:49:35;3.88;;;2.00;;
43837;SDS011;65998;46.256;7.534;2022-12-29T20:52:02;4.85;;;2.10;;
43837;SDS011;65998;46.256;7.534;2022-12-29T20:54:29;5.15;;;2.20;;
43837;SDS011;65998;46.256;7.534;2022-12-29T20:56:55;4.05;;;2.10;;
43837;SDS011;65998;46.256;7.534;2022-12-29T20:59:21;3.53;;;1.80;;
43837;SDS011;65998;46.256;7.534;2022-12-29T21:01:48;4.47;;;1.80;;
43837;SDS011;65998;46.256;7.534;2022-12-29T21:04:14;4.50;;;1.90;;
43837;SDS011;65998;46.256;7.534;2022-12-29T21:06:41;4.50;;;1.93;;
43837;SDS011;65998;46.256;7.534;2022-12-29T21:09:07;5.18;;;2.28;;
43837;SDS011;65998;46.256;7.534;2022-12-29T21:11:34;7.45;;;2.13;;
43837;SDS011;65998;46.256;7.534;2022-12-29T21:14:00;4.95;;;2.05;;
43837;SDS011;65998;46.256;7.534;2022-12-29T21:16:26;5.93;;;1.90;;
43837;SDS011;65998;46.256;7.534;2022-12-29T21:18:52;3.75;;;1.88;;
43837;SDS011;65998;46.256;7.534;2022-12-29T21:21:20;4.47;;;1.77;;
43837;SDS011;65998;46.256;7.534;2022-12-29T21:23:51;5.03;;;1.75;;
43837;SDS011;65998;46.256;7.534;2022-12-29T21:26:19;4.57;;;1.70;;
43837;SDS011;65998;46.256;7.534;2022-12-29T21:28:46;3.95;;;1.80;;
43837;SDS011;65998;46.256;7.534;2022-12-29T21:33:53;4.23;;;1.90;;
43837;SDS011;65998;46.256;7.534;2022-12-29T21:36:20;4.28;;;1.90;;
43837;SDS011;65998;46.256;7.534;2022-12-29T21:38:47;4.72;;;1.63;;
43837;SDS011;65998;46.256;7.534;2022-12-29T21:41:14;5.13;;;2.00;;
43837;SDS011;65998;46.256;7.534;2022-12-29T21:43:42;4.13;;;1.83;;
43837;SDS011;65998;46.256;7.534;2022-12-29T21:46:29;5.10;;;1.90;;
43837;SDS011;65998;46.256;7.534;2022-12-29T21:48:59;3.17;;;1.67;;
43837;SDS011;65998;46.256;7.534;2022-12-29T21:51:26;4.15;;;1.90;;
43837;SDS011;65998;46.256;7.534;2022-12-29T21:54:10;4.88;;;1.95;;
43837;SDS011;65998;46.256;7.534;2022-12-29T21:56:55;3.83;;;1.88;;
43837;SDS011;65998;46.256;7.534;2022-12-29T21:59:22;4.47;;;1.87;;
43837;SDS011;65998;46.256;7.534;2022-12-29T22:02:13;4.57;;;1.60;;
43837;SDS011;65998;46.256;7.534;2022-12-29T22:05:00;4.00;;;1.85;;
43837;SDS011;65998;46.256;7.534;2022-12-29T22:07:45;3.78;;;1.80;;
43837;SDS011;65998;46.256;7.534;2022-12-29T22:10:29;3.55;;;1.85;;
43837;SDS011;65998;46.256;7.534;2022-12-29T22:13:14;4.20;;;1.57;;
43837;SDS011;65998;46.256;7.534;2022-12-29T22:15:40;3.50;;;1.55;;
43837;SDS011;65998;46.256;7.534;2022-12-29T22:18:06;2.83;;;1.30;;
43837;SDS011;65998;46.256;7.534;2022-12-29T22:20:33;3.13;;;1.45;;
43837;SDS011;65998;46.256;7.534;2022-12-29T22:23:01;2.77;;;1.20;;
43837;SDS011;65998;46.256;7.534;2022-12-29T22:25:28;3.60;;;1.40;;